sensor_id;sensor_type;location;lat;lon;timestamp;pressure;altitude;pressure_sealevel;temperature;humidity
19447;BME280;9862;49.462;11.054;2023-02-12T00:00:00;99986.22;;;7.62;100.00
19447;BME280;9862;49.462;11.054;2023-02-12T00:02:27;99987.63;;;7.66;100.00
19447;BME280;9862;49.462;11.054;2023-02-12T00:04:55;99988.47;;;7.67;100.00
19447;BME280;9862;49.462;11.054;2023-02-12T00:07:21;99991.09;;;7.67;100.00
19447;BME280;9862;49.462;11.054;2023-02-12T00:09:48;99988.03;;;7.71;100.00
19447;BME280;9862;49.462;11.054;2023-02-12T00:12:15;99988.31;;;7.78;100.00
19447;BME280;9862;49.462;11.054;2023-02-12T00:14:41;99986.22;;;7.82;100.00
19447;BME280;9862;49.462;11.054;2023-02-12T00:17:08;99982.16;;;7.87;100.00
19447;BME280;9862;49.462;11.054;2023-02-12T00:19:34;99991.94;;;7.77;100.00
19447;BME280;9862;49.462;11.054;2023-02-12T00:22:02;99990.09;;;7.87;100.00
19447;BME280;9862;49.462;11.054;2023-02-12T00:24:29;99984.97;;;7.76;100.00
19447;BME280;9862;49.462;11.054;2023-02-12T00:26:56;99983.00;;;7.78;100.00
19447;BME280;9862;49.462;11.054;2023-02-12T00:29:22;99977.56;;;7.70;100.00
19447;BME280;9862;49.462;11.054;2023-02-12T00:31:49;99984.13;;;7.75;100.00
19447;BME280;9862;49.462;11.054;2023-02-12T00:34:16;99986.75;;;7.85;100.00
19447;BME280;9862;49.462;11.054;2023-02-12T00:36:42;99987.59;;;7.76;100.00
19447;BME280;9862;49.462;11.054;2023-02-12T00:39:10;99997.09;;;7.69;100.00
19447;BME280;9862;49.462;11.054;2023-02-12T00:41:37;99992.09;;;7.66;100.00
19447;BME280;9862;49.462;11.054;2023-02-12T00:44:04;99992.94;;;7.66;100.00
19447;BME280;9862;49.462;11.054;2023-02-12T00:46:30;99994.31;;;7.70;100.00
19447;BME280;9862;49.462;11.054;2023-02-12T00:48:57;100003.38;;;7.68;100.00
19447;BME280;9862;49.462;11.054;2023-02-12T00:51:23;99989.44;;;7.66;100.00
19447;BME280;9862;49.462;11.054;2023-02-12T00:53:50;99989.28;;;7.67;100.00
19447;BME280;9862;49.462;11.054;2023-02-12T00:56:18;99994.44;;;7.69;100.00
19447;BME280;9862;49.462;11.054;2023-02-12T00:58:44;99993.47;;;7.70;100.00
19447;BME280;9862;49.462;11.054;2023-02-12T01:01:11;100000.44;;;7.71;100.00
19447;BME280;9862;49.462;11.054;2023-02-12T01:03:38;99997.78;;;7.81;100.00
19447;BME280;9862;49.462;11.054;2023-02-12T01:06:05;99990.41;;;7.74;100.00
19447;BME280;9862;49.462;11.054;2023-02-12T01:08:31;99995.72;;;7.74;100.00
19447;BME280;9862;49.462;11.054;2023-02-12T01:11:00;99986.94;;;7.74;100.00
19447;BME280;9862;49.462;11.054;2023-02-12T01:13:30;99995.88;;;7.54;100.00
19447;BME280;9862;49.462;11.054;2023-02-12T01:16:02;99993.22;;;7.44;100.00
19447;BME280;9862;49.462;11.054;2023-02-12T01:18:31;99999.47;;;7.53;100.00
19447;BME280;9862;49.462;11.054;2023-02-12T01:20:57;99992.41;;;7.53;100.00
19447;BME280;9862;49.462;11.054;2023-02-12T01:23:24;99984.56;;;7.52;100.00
19447;BME280;9862;49.462;11.054;2023-02-12T01:25:51;99982.34;;;7.57;100.00
19447;BME280;9862;49.462;11.054;2023-02-12T01:28:17;99984.00;;;7.58;100.00
19447;BME280;9862;49.462;11.054;2023-02-12T01:30:45;99986.38;;;7.51;100.00
19447;BME280;9862;49.462;11.054;2023-02-12T01:33:12;99983.84;;;7.59;100.00
19447;BME280;9862;49.462;11.054;2023-02-12T01:35:39;99988.31;;;7.68;100.00
19447;BME280;9862;49.462;11.054;2023-02-12T01:38:05;99993.47;;;7.70;100.00
19447;BME280;9862;49.462;11.054;2023-02-12T01:40:32;99985.69;;;7.59;100.00
19447;BME280;9862;49.462;11.054;2023-02-12T01:43:00;99984.72;;;7.50;100.00
19447;BME280;9862;49.462;11.054;2023-02-12T01:45:46;99986.53;;;7.50;100.00
19447;BME280;9862;49.462;11.054;2023-02-12T01:48:15;99980.09;;;7.52;100.00
19447;BME280;9862;49.462;11.054;2023-02-12T01:50:43;99973.94;;;7.61;100.00
19447;BME280;9862;49.462;11.054;2023-02-12T01:53:12;99974.09;;;7.60;100.00
19447;BME280;9862;49.462;11.054;2023-02-12T01:55:45;99974.53;;;7.45;100.00
19447;BME280;9862;49.462;11.054;2023-02-12T01:58:13;99973.44;;;7.38;100.00
19447;BME280;9862;49.462;11.054;2023-02-12T02:00:40;99985.69;;;7.39;100.00
19447;BME280;9862;49.462;11.054;2023-02-12T02:03:08;99984.84;;;7.49;100.00
19447;BME280;9862;49.462;11.054;2023-02-12T02:05:42;99984.72;;;7.50;100.00
19447;BME280;9862;49.462;11.054;2023-02-12T02:08:09;99990.69;;;7.62;100.00
19447;BME280;9862;49.462;11.054;2023-02-12T02:10:36;99987.34;;;7.60;100.00
19447;BME280;9862;49.462;11.054;2023-02-12T02:13:03;99987.09;;;7.63;100.00
19447;BME280;9862;49.462;11.054;2023-02-12T02:15:48;99975.91;;;7.69;100.00
19447;BME280;9862;49.462;11.054;2023-02-12T02:18:22;99980.50;;;7.67;100.00
19447;BME280;9862;49.462;11.054;2023-02-12T02:21:18;99980.81;;;7.64;100.00
19447;BME280;9862;49.462;11.054;2023-02-12T02:24:03;99987.34;;;7.69;100.00
19447;BME280;9862;49.462;11.054;2023-02-12T02:26:53;99985.38;;;7.71;100.00
19447;BME280;9862;49.462;11.054;2023-02-12T02:32:28;99985.66;;;7.78;100.00
19447;BME280;9862;49.462;11.054;2023-02-12T02:34:59;99977.00;;;7.76;100.00
19447;BME280;9862;49.462;11.054;2023-02-12T02:37:32;99976.19;;;7.75;100.00
19447;BME280;9862;49.462;11.054;2023-02-12T02:40:08;99981.59;;;7.84;100.00
19447;BME280;9862;49.462;11.054;2023-02-12T02:42:38;99987.44;;;7.87;100.00
19447;BME280;9862;49.462;11.054;2023-02-12T02:45:10;99990.63;;;7.91;100.00
19447;BME280;9862;49.462;11.054;2023-02-12T02:47:42;99987.59;;;7.86;100.00
19447;BME280;9862;49.462;11.054;2023-02-12T02:50:12;100000.84;;;7.86;100.00
19447;BME280;9862;49.462;11.054;2023-02-12T02:52:44;99989.56;;;7.84;100.00
19447;BME280;9862;49.462;11.054;2023-02-12T02:55:15;99990.38;;;7.84;100.00
19447;BME280;9862;49.462;11.054;2023-02-12T02:57:46;99988.97;;;7.90;100.00
19447;BME280;9862;49.462;11.054;2023-02-12T03:00:17;99996.81;;;7.91;100.00
19447;BME280;9862;49.462;11.054;2023-02-12T03:02:50;99996.91;;;7.99;100.00
19447;BME280;9862;49.462;11.054;2023-02-12T03:05:21;99992.44;;;7.90;100.00
19447;BME280;9862;49.462;11.054;2023-02-12T03:07:51;99996.22;;;7.97;100.00
19447;BME280;9862;49.462;11.054;2023-02-12T03:10:21;99995.53;;;7.95;100.00
19447;BME280;9862;49.462;11.054;2023-02-12T03:12:53;100002.09;;;7.91;100.00
19447;BME280;9862;49.462;11.054;2023-02-12T03:15:25;99997.34;;;7.95;100.00
19447;BME280;9862;49.462;11.054;2023-02-12T03:17:57;100002.22;;;7.90;100.00
19447;BME280;9862;49.462;11.054;2023-02-12T03:20:28;100005.69;;;7.90;100.00
19447;BME280;9862;49.462;11.054;2023-02-12T03:23:00;100001.69;;;7.86;100.00
19447;BME280;9862;49.462;11.054;2023-02-12T03:25:32;100007.28;;;7.83;100.00
19447;BME280;9862;49.462;11.054;2023-02-12T03:28:04;100003.88;;;7.91;100.00
19447;BME280;9862;49.462;11.054;2023-02-12T03:30:38;100000.03;;;7.75;100.00
19447;BME280;9862;49.462;11.054;2023-02-12T03:33:16;100015.13;;;7.56;100.00
19447;BME280;9862;49.462;11.054;2023-02-12T03:35:51;100014.13;;;7.47;100.00
19447;BME280;9862;49.462;11.054;2023-02-12T03:38:28;100011.63;;;7.45;100.00
19447;BME280;9862;49.462;11.054;2023-02-12T03:41:02;100011.78;;;7.34;100.00
19447;BME280;9862;49.462;11.054;2023-02-12T03:43:33;100019.44;;;7.37;100.00
19447;BME280;9862;49.462;11.054;2023-02-12T03:46:07;100019.97;;;7.41;100.00
19447;BME280;9862;49.462;11.054;2023-02-12T03:48:43;100019.84;;;7.42;100.00
19447;BME280;9862;49.462;11.054;2023-02-12T03:51:18;100023.06;;;7.46;100.00
19447;BME280;9862;49.462;11.054;2023-02-12T03:53:46;100028.06;;;7.49;100.00
19447;BME280;9862;49.462;11.054;2023-02-12T03:56:18;100027.53;;;7.45;100.00
19447;BME280;9862;49.462;11.054;2023-02-12T03:58:45;100024.88;;;7.36;100.00
19447;BME280;9862;49.462;11.054;2023-02-12T04:01:12;100025.84;;;7.44;100.00
19447;BME280;9862;49.462;11.054;2023-02-12T04:03:40;100019.97;;;7.51;100.00
19447;BME280;9862;49.462;11.054;2023-02-12T04:06:18;100029.47;;;7.53;100.00
19447;BME280;9862;49.462;11.054;2023-02-12T04:08:45;100028.75;;;7.70;100.00
19447;BME280;9862;49.462;11.054;2023-02-12T04:11:18;100026.69;;;7.64;100.00
19447;BME280;9862;49.462;11.054;2023-02-12T04:13:55;100031.69;;;7.58;100.00
19447;BME280;9862;49.462;11.054;2023-02-12T04:16:33;100025.56;;;7.57;100.00
19447;BME280;9862;49.462;11.054;2023-02-12T04:19:02;100029.47;;;7.63;100.00
19447;BME280;9862;49.462;11.054;2023-02-12T04:21:43;100031.25;;;7.72;100.00
19447;BME280;9862;49.462;11.054;2023-02-12T04:24:18;100030.16;;;7.65;100.00
19447;BME280;9862;49.462;11.054;2023-02-12T04:26:48;100039.63;;;7.77;100.00
19447;BME280;9862;49.462;11.054;2023-02-12T04:29:19;100030.56;;;7.70;100.00
19447;BME280;9862;49.462;11.054;2023-02-12T04:31:54;100034.06;;;7.70;100.00
19447;BME280;9862;49.462;11.054;2023-02-12T04:34:27;100036.28;;;7.75;100.00
19447;BME280;9862;49.462;11.054;2023-02-12T04:37:01;100034.31;;;7.87;100.00
19447;BME280;9862;49.462;11.054;2023-02-12T04:39:30;100042.72;;;7.72;100.00
19447;BME280;9862;49.462;11.054;2023-02-12T04:42:00;100042.72;;;7.82;100.00
19447;BME280;9862;49.462;11.054;2023-02-12T04:44:28;100039.50;;;7.79;100.00
19447;BME280;9862;49.462;11.054;2023-02-12T04:46:55;100047.03;;;7.73;100.00
19447;BME280;9862;49.462;11.054;2023-02-12T04:49:23;100041.31;;;7.68;100.00
19447;BME280;9862;49.462;11.054;2023-02-12T04:51:50;100045.91;;;7.76;100.00
19447;BME280;9862;49.462;11.054;2023-02-12T04:54:18;100046.75;;;7.77;100.00
19447;BME280;9862;49.462;11.054;2023-02-12T04:56:45;100054.16;;;7.73;100.00
19447;BME280;9862;49.462;11.054;2023-02-12T04:59:12;100046.47;;;7.70;100.00
19447;BME280;9862;49.462;11.054;2023-02-12T05:01:39;100048.13;;;7.71;100.00
19447;BME280;9862;49.462;11.054;2023-02-12T05:04:07;100057.06;;;7.70;100.00
19447;BME280;9862;49.462;11.054;2023-02-12T05:06:37;100047.88;;;7.74;100.00
19447;BME280;9862;49.462;11.054;2023-02-12T05:09:05;100046.59;;;7.78;100.00
19447;BME280;9862;49.462;11.054;2023-02-12T05:11:32;100053.44;;;7.81;100.00
19447;BME280;9862;49.462;11.054;2023-02-12T05:13:59;100050.66;;;7.82;100.00
19447;BME280;9862;49.462;11.054;2023-02-12T05:16:26;100047.72;;;7.85;100.00
19447;BME280;9862;49.462;11.054;2023-02-12T05:18:52;100050.22;;;7.87;100.00
19447;BME280;9862;49.462;11.054;2023-02-12T05:21:19;100051.06;;;7.87;100.00
19447;BME280;9862;49.462;11.054;2023-02-12T05:23:47;100049.09;;;7.89;100.00
19447;BME280;9862;49.462;11.054;2023-02-12T05:26:15;100051.50;;;7.92;100.00
19447;BME280;9862;49.462;11.054;2023-02-12T05:28:42;100048.53;;;7.95;100.00
19447;BME280;9862;49.462;11.054;2023-02-12T05:31:11;100054.53;;;7.97;100.00
19447;BME280;9862;49.462;11.054;2023-02-12T05:33:40;100055.09;;;8.01;100.00
19447;BME280;9862;49.462;11.054;2023-02-12T05:36:09;100055.09;;;8.01;100.00
19447;BME280;9862;49.462;11.054;2023-02-12T05:38:36;100057.63;;;8.02;100.00
19447;BME280;9862;49.462;11.054;2023-02-12T05:41:06;100060.94;;;8.04;100.00
19447;BME280;9862;49.462;11.054;2023-02-12T05:43:33;100065.97;;;8.08;100.00
19447;BME280;9862;49.462;11.054;2023-02-12T05:46:00;100058.16;;;8.06;100.00
19447;BME280;9862;49.462;11.054;2023-02-12T05:48:28;100066.94;;;8.07;100.00
19447;BME280;9862;49.462;11.054;2023-02-12T05:51:00;100063.47;;;8.06;100.00
19447;BME280;9862;49.462;11.054;2023-02-12T05:53:27;100071.25;;;8.08;100.00
19447;BME280;9862;49.462;11.054;2023-02-12T05:55:54;100074.91;;;8.07;100.00
19447;BME280;9862;49.462;11.054;2023-02-12T05:58:21;100072.09;;;8.08;100.00
19447;BME280;9862;49.462;11.054;2023-02-12T06:00:48;100068.63;;;8.08;100.00
19447;BME280;9862;49.462;11.054;2023-02-12T06:03:15;100077.69;;;8.05;100.00
19447;BME280;9862;49.462;11.054;2023-02-12T06:05:42;100077.84;;;8.03;100.00
19447;BME280;9862;49.462;11.054;2023-02-12T06:08:08;100075.19;;;8.03;100.00
19447;BME280;9862;49.462;11.054;2023-02-12T06:10:36;100075.19;;;8.03;100.00
19447;BME280;9862;49.462;11.054;2023-02-12T06:13:02;100078.53;;;8.06;100.00
19447;BME280;9862;49.462;11.054;2023-02-12T06:15:31;100076.84;;;8.04;100.00
19447;BME280;9862;49.462;11.054;2023-02-12T06:17:57;100082.16;;;8.04;100.00
19447;BME280;9862;49.462;11.054;2023-02-12T06:20:25;100077.56;;;8.07;100.00
19447;BME280;9862;49.462;11.054;2023-02-12T06:22:52;100081.03;;;8.07;100.00
19447;BME280;9862;49.462;11.054;2023-02-12T06:25:19;100073.78;;;8.09;100.00
19447;BME280;9862;49.462;11.054;2023-02-12T06:27:46;100076.41;;;8.09;100.00
19447;BME280;9862;49.462;11.054;2023-02-12T06:30:14;100080.75;;;8.10;100.00
19447;BME280;9862;49.462;11.054;2023-02-12T06:32:42;100085.78;;;8.13;100.00
19447;BME280;9862;49.462;11.054;2023-02-12T06:35:08;100083.28;;;8.12;100.00
19447;BME280;9862;49.462;11.054;2023-02-12T06:37:35;100090.50;;;8.10;100.00
19447;BME280;9862;49.462;11.054;2023-02-12T06:40:03;100086.03;;;8.10;100.00
19447;BME280;9862;49.462;11.054;2023-02-12T06:42:30;100091.34;;;8.10;100.00
19447;BME280;9862;49.462;11.054;2023-02-12T06:44:56;100099.31;;;8.10;100.00
19447;BME280;9862;49.462;11.054;2023-02-12T06:47:23;100108.13;;;8.11;100.00
19447;BME280;9862;49.462;11.054;2023-02-12T06:49:51;100113.13;;;8.14;100.00
19447;BME280;9862;49.462;11.054;2023-02-12T06:52:17;100110.47;;;8.14;100.00
19447;BME280;9862;49.462;11.054;2023-02-12T06:54:45;100120.94;;;8.15;100.00
19447;BME280;9862;49.462;11.054;2023-02-12T06:57:12;100116.75;;;8.32;100.00
19447;BME280;9862;49.462;11.054;2023-02-12T06:59:38;100106.56;;;8.18;100.00
19447;BME280;9862;49.462;11.054;2023-02-12T07:02:05;100114.38;;;8.10;100.00
19447;BME280;9862;49.462;11.054;2023-02-12T07:04:32;100114.13;;;8.03;100.00
19447;BME280;9862;49.462;11.054;2023-02-12T07:07:00;100122.09;;;7.93;100.00
19447;BME280;9862;49.462;11.054;2023-02-12T07:09:26;100129.34;;;7.91;100.00
19447;BME280;9862;49.462;11.054;2023-02-12T07:11:53;100128.78;;;7.88;100.00
19447;BME280;9862;49.462;11.054;2023-02-12T07:14:21;100126.28;;;7.86;100.00
19447;BME280;9862;49.462;11.054;2023-02-12T07:16:47;100136.31;;;7.92;100.00
19447;BME280;9862;49.462;11.054;2023-02-12T07:19:14;100134.06;;;7.97;100.00
19447;BME280;9862;49.462;11.054;2023-02-12T07:21:42;100132.13;;;7.99;100.00
19447;BME280;9862;49.462;11.054;2023-02-12T07:24:10;100136.88;;;8.06;100.00
19447;BME280;9862;49.462;11.054;2023-02-12T07:26:38;100133.53;;;8.13;100.00
19447;BME280;9862;49.462;11.054;2023-02-12T07:29:05;100131.56;;;8.15;100.00
19447;BME280;9862;49.462;11.054;2023-02-12T07:31:31;100140.19;;;8.17;100.00
19447;BME280;9862;49.462;11.054;2023-02-12T07:33:58;100141.63;;;8.12;100.00
19447;BME280;9862;49.462;11.054;2023-02-12T07:36:29;100142.72;;;8.09;100.00
19447;BME280;9862;49.462;11.054;2023-02-12T07:38:57;100136.56;;;8.09;100.00
19447;BME280;9862;49.462;11.054;2023-02-12T07:41:27;100141.03;;;8.08;100.00
19447;BME280;9862;49.462;11.054;2023-02-12T07:43:55;100136.56;;;8.09;100.00
19447;BME280;9862;49.462;11.054;2023-02-12T07:46:23;100148.31;;;8.16;100.00
19447;BME280;9862;49.462;11.054;2023-02-12T07:48:54;100143.84;;;8.16;100.00
19447;BME280;9862;49.462;11.054;2023-02-12T07:51:21;100143.97;;;8.24;100.00
19447;BME280;9862;49.462;11.054;2023-02-12T07:53:48;100146.78;;;8.23;100.00
19447;BME280;9862;49.462;11.054;2023-02-12T07:56:17;100153.44;;;8.27;100.00
19447;BME280;9862;49.462;11.054;2023-02-12T07:58:47;100148.84;;;8.29;100.00
19447;BME280;9862;49.462;11.054;2023-02-12T08:01:16;100142.28;;;8.33;100.00
19447;BME280;9862;49.462;11.054;2023-02-12T08:03:44;100146.34;;;8.37;100.00
19447;BME280;9862;49.462;11.054;2023-02-12T08:06:13;100138.53;;;8.36;100.00
19447;BME280;9862;49.462;11.054;2023-02-12T08:08:40;100144.38;;;8.39;100.00
19447;BME280;9862;49.462;11.054;2023-02-12T08:11:08;100153.31;;;8.38;100.00
19447;BME280;9862;49.462;11.054;2023-02-12T08:13:36;100158.38;;;8.41;100.00
19447;BME280;9862;49.462;11.054;2023-02-12T08:16:06;100164.75;;;8.48;100.00
19447;BME280;9862;49.462;11.054;2023-02-12T08:18:33;100161.41;;;8.46;100.00
19447;BME280;9862;49.462;11.054;2023-02-12T08:21:01;100169.81;;;8.51;100.00
19447;BME280;9862;49.462;11.054;2023-02-12T08:23:28;100164.34;;;8.53;100.00
19447;BME280;9862;49.462;11.054;2023-02-12T08:26:04;100164.75;;;8.58;100.00
19447;BME280;9862;49.462;11.054;2023-02-12T08:28:31;100154.97;;;8.58;100.00
19447;BME280;9862;49.462;11.054;2023-02-12T08:30:59;100150.22;;;8.62;100.00
19447;BME280;9862;49.462;11.054;2023-02-12T08:33:27;100159.31;;;8.59;100.00
19447;BME280;9862;49.462;11.054;2023-02-12T08:36:00;100151.75;;;8.65;100.00
19447;BME280;9862;49.462;11.054;2023-02-12T08:38:27;100143.50;;;8.58;100.00
19447;BME280;9862;49.462;11.054;2023-02-12T08:40:53;100138.34;;;8.56;100.00
19447;BME280;9862;49.462;11.054;2023-02-12T08:43:20;100139.03;;;8.58;100.00
19447;BME280;9862;49.462;11.054;2023-02-12T08:45:47;100137.34;;;8.67;100.00
19447;BME280;9862;49.462;11.054;2023-02-12T08:48:13;100137.91;;;8.71;100.00
19447;BME280;9862;49.462;11.054;2023-02-12T08:50:41;100137.59;;;8.74;100.00
19447;BME280;9862;49.462;11.054;2023-02-12T08:53:08;100143.22;;;8.71;100.00
19447;BME280;9862;49.462;11.054;2023-02-12T08:55:34;100141.50;;;8.79;100.00
19447;BME280;9862;49.462;11.054;2023-02-12T08:58:01;100143.53;;;8.95;100.00
19447;BME280;9862;49.462;11.054;2023-02-12T09:00:28;100144.50;;;8.94;100.00
19447;BME280;9862;49.462;11.054;2023-02-12T09:02:54;100139.88;;;8.96;100.00
19447;BME280;9862;49.462;11.054;2023-02-12T09:05:21;100144.00;;;8.81;100.00
19447;BME280;9862;49.462;11.054;2023-02-12T09:07:50;100141.81;;;8.67;100.00
19447;BME280;9862;49.462;11.054;2023-02-12T09:10:18;100147.72;;;8.60;100.00
19447;BME280;9862;49.462;11.054;2023-02-12T09:12:45;100153.72;;;8.63;100.00
19447;BME280;9862;49.462;11.054;2023-02-12T09:15:12;100158.06;;;8.54;100.00
19447;BME280;9862;49.462;11.054;2023-02-12T09:17:39;100145.50;;;8.46;100.00
19447;BME280;9862;49.462;11.054;2023-02-12T09:20:08;100155.72;;;8.41;100.00
19447;BME280;9862;49.462;11.054;2023-02-12T09:22:35;100162.53;;;8.24;100.00
19447;BME280;9862;49.462;11.054;2023-02-12T09:25:04;100156.69;;;8.21;100.00
19447;BME280;9862;49.462;11.054;2023-02-12T09:27:31;100155.13;;;8.09;100.00
19447;BME280;9862;49.462;11.054;2023-02-12T09:29:58;100164.66;;;8.01;100.00
19447;BME280;9862;49.462;11.054;2023-02-12T09:32:24;100166.59;;;7.99;100.00
19447;BME280;9862;49.462;11.054;2023-02-12T09:34:51;100172.31;;;8.04;100.00
19447;BME280;9862;49.462;11.054;2023-02-12T09:37:18;100171.78;;;8.11;100.00
19447;BME280;9862;49.462;11.054;2023-02-12T09:39:44;100161.28;;;7.99;100.00
19447;BME280;9862;49.462;11.054;2023-02-12T09:42:20;100177.47;;;7.87;100.00
19447;BME280;9862;49.462;11.054;2023-02-12T09:44:58;100175.94;;;7.84;100.00
19447;BME280;9862;49.462;11.054;2023-02-12T09:47:32;100177.06;;;7.82;100.00
19447;BME280;9862;49.462;11.054;2023-02-12T09:50:11;100173.00;;;7.87;100.00
19447;BME280;9862;49.462;11.054;2023-02-12T09:52:43;100167.41;;;7.81;100.00
19447;BME280;9862;49.462;11.054;2023-02-12T09:55:12;100172.59;;;7.82;100.00
19447;BME280;9862;49.462;11.054;2023-02-12T09:57:41;100173.84;;;7.97;100.00
19447;BME280;9862;49.462;11.054;2023-02-12T10:00:12;100178.16;;;7.98;100.00
19447;BME280;9862;49.462;11.054;2023-02-12T10:02:40;100170.34;;;7.97;100.00
19447;BME280;9862;49.462;11.054;2023-02-12T10:05:15;100186.13;;;7.98;100.00
19447;BME280;9862;49.462;11.054;2023-02-12T10:08:01;100181.78;;;7.97;100.00
19447;BME280;9862;49.462;11.054;2023-02-12T10:10:38;100181.41;;;7.92;100.00
19447;BME280;9862;49.462;11.054;2023-02-12T10:13:17;100189.22;;;8.03;100.00
19447;BME280;9862;49.462;11.054;2023-02-12T10:15:50;100184.06;;;8.12;100.00
19447;BME280;9862;49.462;11.054;2023-02-12T10:18:37;100181.66;;;8.38;100.00
19447;BME280;9862;49.462;11.054;2023-02-12T10:21:15;100179.31;;;8.35;100.00
19447;BME280;9862;49.462;11.054;2023-02-12T10:24:04;100176.66;;;8.44;100.00
19447;BME280;9862;49.462;11.054;2023-02-12T10:26:37;100172.31;;;8.33;100.00
19447;BME280;9862;49.462;11.054;2023-02-12T10:29:12;100182.94;;;8.43;100.00
19447;BME280;9862;49.462;11.054;2023-02-12T10:31:43;100183.22;;;8.40;100.00
19447;BME280;9862;49.462;11.054;2023-02-12T10:34:15;100179.00;;;8.28;100.00
19447;BME280;9862;49.462;11.054;2023-02-12T10:36:44;100175.94;;;8.23;100.00
19447;BME280;9862;49.462;11.054;2023-02-12T10:39:18;100174.00;;;8.15;100.00
19447;BME280;9862;49.462;11.054;2023-02-12T10:41:48;100175.13;;;8.13;100.00
19447;BME280;9862;49.462;11.054;2023-02-12T10:44:20;100164.75;;;8.19;100.00
19447;BME280;9862;49.462;11.054;2023-02-12T10:46:46;100172.03;;;8.27;100.00
19447;BME280;9862;49.462;11.054;2023-02-12T10:49:16;100171.63;;;8.31;100.00
19447;BME280;9862;49.462;11.054;2023-02-12T10:51:55;100170.66;;;8.23;100.00
19447;BME280;9862;49.462;11.054;2023-02-12T10:54:35;100169.22;;;8.28;100.00
19447;BME280;9862;49.462;11.054;2023-02-12T10:57:14;100180.69;;;8.48;100.00
19447;BME280;9862;49.462;11.054;2023-02-12T10:59:45;100174.28;;;8.41;100.00
19447;BME280;9862;49.462;11.054;2023-02-12T11:02:27;100171.03;;;8.28;100.00
19447;BME280;9862;49.462;11.054;2023-02-12T11:04:55;100170.06;;;8.29;100.00
19447;BME280;9862;49.462;11.054;2023-02-12T11:07:22;100170.34;;;8.45;100.00
19447;BME280;9862;49.462;11.054;2023-02-12T11:09:51;100165.06;;;8.45;100.00
19447;BME280;9862;49.462;11.054;2023-02-12T11:12:32;100169.78;;;8.32;100.00
19447;BME280;9862;49.462;11.054;2023-02-12T11:15:11;100166.03;;;8.15;100.00
19447;BME280;9862;49.462;11.054;2023-02-12T11:17:40;100170.22;;;8.18;100.00
19447;BME280;9862;49.462;11.054;2023-02-12T11:20:23;100174.69;;;8.08;100.00
19447;BME280;9862;49.462;11.054;2023-02-12T11:22:52;100173.44;;;8.02;100.00
19447;BME280;9862;49.462;11.054;2023-02-12T11:25:20;100164.22;;;7.96;100.00
19447;BME280;9862;49.462;11.054;2023-02-12T11:27:58;100165.59;;;8.00;100.00
19447;BME280;9862;49.462;11.054;2023-02-12T11:30:27;100163.94;;;7.99;100.00
19447;BME280;9862;49.462;11.054;2023-02-12T11:32:54;100165.06;;;7.97;100.00
19447;BME280;9862;49.462;11.054;2023-02-12T11:35:22;100174.13;;;7.94;100.00
19447;BME280;9862;49.462;11.054;2023-02-12T11:37:53;100168.97;;;7.93;100.00
19447;BME280;9862;49.462;11.054;2023-02-12T11:40:22;100174.97;;;7.95;100.00
19447;BME280;9862;49.462;11.054;2023-02-12T11:43:01;100186.09;;;7.79;100.00
19447;BME280;9862;49.462;11.054;2023-02-12T11:45:35;100175.09;;;7.74;100.00
19447;BME280;9862;49.462;11.054;2023-02-12T11:48:16;100168.38;;;7.70;100.00
19447;BME280;9862;49.462;11.054;2023-02-12T11:50:46;100167.00;;;7.75;100.00
19447;BME280;9862;49.462;11.054;2023-02-12T11:53:20;100168.69;;;7.86;100.00
19447;BME280;9862;49.462;11.054;2023-02-12T11:55:59;100165.59;;;7.91;100.00
19447;BME280;9862;49.462;11.054;2023-02-12T11:58:27;100172.16;;;7.96;100.00
19447;BME280;9862;49.462;11.054;2023-02-12T12:01:03;100161.72;;;8.04;100.00
19447;BME280;9862;49.462;11.054;2023-02-12T12:03:36;100153.06;;;8.02;100.00
19447;BME280;9862;49.462;11.054;2023-02-12T12:06:08;100161.28;;;7.99;100.00
19447;BME280;9862;49.462;11.054;2023-02-12T12:08:46;100157.53;;;8.02;100.00
19447;BME280;9862;49.462;11.054;2023-02-12T12:11:18;100161.84;;;8.13;100.00
19447;BME280;9862;49.462;11.054;2023-02-12T12:13:49;100162.53;;;8.34;100.00
19447;BME280;9862;49.462;11.054;2023-02-12T12:16:24;100156.69;;;8.40;100.00
19447;BME280;9862;49.462;11.054;2023-02-12T12:19:15;100155.53;;;8.52;100.00
19447;BME280;9862;49.462;11.054;2023-02-12T12:22:17;100145.34;;;8.48;100.00
19447;BME280;9862;49.462;11.054;2023-02-12T12:24:51;100156.41;;;8.43;100.00
19447;BME280;9862;49.462;11.054;2023-02-12T12:27:26;100150.25;;;8.33;100.00
19447;BME280;9862;49.462;11.054;2023-02-12T12:30:19;100153.47;;;8.46;100.00
19447;BME280;9862;49.462;11.054;2023-02-12T12:32:50;100147.97;;;8.57;100.00
19447;BME280;9862;49.462;11.054;2023-02-12T12:35:27;100145.06;;;8.60;100.00
19447;BME280;9862;49.462;11.054;2023-02-12T12:38:01;100153.69;;;8.72;100.00
19447;BME280;9862;49.462;11.054;2023-02-12T12:40:44;100146.41;;;8.74;100.00
19447;BME280;9862;49.462;11.054;2023-02-12T12:43:18;100147.94;;;8.67;100.00
19447;BME280;9862;49.462;11.054;2023-02-12T12:46:04;100146.56;;;8.73;100.00
19447;BME280;9862;49.462;11.054;2023-02-12T12:48:47;100148.78;;;8.68;100.00
19447;BME280;9862;49.462;11.054;2023-02-12T12:51:29;100139.69;;;8.80;100.00
19447;BME280;9862;49.462;11.054;2023-02-12T12:54:09;100141.75;;;8.86;100.00
19447;BME280;9862;49.462;11.054;2023-02-12T12:56:46;100140.19;;;8.93;100.00
19447;BME280;9862;49.462;11.054;2023-02-12T12:59:43;100127.91;;;8.92;100.00
19447;BME280;9862;49.462;11.054;2023-02-12T13:02:35;100130.81;;;8.99;100.00
19447;BME280;9862;49.462;11.054;2023-02-12T13:05:20;100125.09;;;8.94;100.00
19447;BME280;9862;49.462;11.054;2023-02-12T13:07:55;100132.63;;;8.98;100.00
19447;BME280;9862;49.462;11.054;2023-02-12T13:10:32;100123.19;;;9.13;100.00
19447;BME280;9862;49.462;11.054;2023-02-12T13:13:12;100119.84;;;9.11;100.00